Terminal Aerodrome Forecast
Issued by NWS

Home | Current Version | Previous Version | Graphics & Text | Print | Product List | Glossary On
Versions: 1 2 3 4 5 6 7 8 9 10 11 12 13 14 15 16 17 18 19 20 21
143
FTUS43 KGRB 310525
TAFATW
TAF
KATW 310525Z 3106/0106 01010G17KT P6SM SCT035 BKN050
     FM310700 36010KT P6SM SCT035
     FM311500 36009G17KT P6SM SCT040
      TEMPO 3119/3123 BKN040
     FM312300 02007KT P6SM SCT045=

USA.gov is the U.S. government's official web portal to all federal, state and local government web resources and services.